Time;durP1;ratioP1;P1;durP2;ratioP2;P2;SDS_P1;SDS_P2;PMS_P1;PMS_P2;Temp;Humidity;BMP_temperature;BMP_pressure;BME280_temperature;BME280_humidity;BME280_pressure;Samples;Min_cycle;Max_cycle;Signal;HPM_P1;HPM_P2
2023/03/08 00:02:00;;;;;;;23.07;5.93;;;;;;;-0.78;100.00;99352.41;6002761;28;20030;-71
2023/03/08 00:04:56;;;;;;;13.70;5.77;;;;;;;-0.78;100.00;99353.25;6003686;28;20042;-72
2023/03/08 00:07:52;;;;;;;12.68;5.38;;;;;;;-0.81;100.00;99348.25;6003747;28;20030;-72
2023/03/08 00:10:47;;;;;;;13.05;4.90;;;;;;;-0.80;100.00;99356.91;6003627;28;20031;-70
2023/03/08 00:13:42;;;;;;;15.37;5.37;;;;;;;-0.75;100.00;99360.00;6002558;28;20070;-71
2023/03/08 00:16:38;;;;;;;13.93;5.30;;;;;;;-0.82;100.00;99353.59;6003720;28;20030;-72
2023/03/08 00:19:33;;;;;;;13.93;6.00;;;;;;;-0.72;100.00;99368.44;6003264;28;20089;-71
2023/03/08 00:22:28;;;;;;;11.67;5.23;;;;;;;-0.80;100.00;99360.34;6002512;28;20030;-71
2023/03/08 00:25:24;;;;;;;16.33;6.13;;;;;;;-0.74;100.00;99372.09;6004353;28;20038;-72
2023/03/08 00:28:19;;;;;;;13.30;5.47;;;;;;;-0.67;100.00;99375.91;6003219;28;20047;-72
2023/03/08 00:31:14;;;;;;;11.83;4.80;;;;;;;-0.66;100.00;99374.97;6003415;28;20026;-73
2023/03/08 00:34:09;;;;;;;13.07;5.83;;;;;;;-0.64;100.00;99386.94;6002521;28;20037;-71
2023/03/08 00:37:05;;;;;;;12.87;5.43;;;;;;;-0.57;100.00;99392.53;6003053;28;20074;-72
2023/03/08 00:40:00;;;;;;;10.50;5.03;;;;;;;-0.57;100.00;99392.53;6003109;28;20038;-71
2023/03/08 00:42:55;;;;;;;14.33;5.07;;;;;;;-0.53;100.00;99404.41;6004039;28;20030;-73
2023/03/08 00:45:51;;;;;;;10.00;5.03;;;;;;;-0.56;100.00;99381.19;6002978;28;20407;-72
2023/03/08 00:48:46;;;;;;;9.68;4.38;;;;;;;-0.54;100.00;99384.50;6002480;28;20066;-73
2023/03/08 00:51:41;;;;;;;10.50;4.87;;;;;;;-0.38;100.00;99392.88;6002649;28;20057;-71
2023/03/08 00:54:37;;;;;;;11.37;4.50;;;;;;;-0.41;100.00;99385.31;6000953;28;20274;-72
2023/03/08 00:57:32;;;;;;;10.30;4.80;;;;;;;-0.37;100.00;99398.91;6002467;28;20046;-73
2023/03/08 01:00:29;;;;;;;10.83;4.73;;;;;;;-0.42;100.00;99388.84;6006938;28;20045;-70
2023/03/08 01:03:25;;;;;;;14.23;4.80;;;;;;;-0.32;100.00;99386.41;6001476;28;20030;-72
2023/03/08 01:06:20;;;;;;;11.98;4.32;;;;;;;-0.28;100.00;99401.72;6002683;28;20026;-71
2023/03/08 01:09:15;;;;;;;17.30;4.87;;;;;;;-0.36;100.00;99384.97;6002554;28;20398;-72
2023/03/08 01:12:10;;;;;;;8.50;4.07;;;;;;;-0.27;100.00;99405.97;6001808;28;20043;-71
2023/03/08 01:15:07;;;;;;;11.77;4.50;;;;;;;-0.31;100.00;99398.50;6002098;28;20049;-72
2023/03/08 01:18:03;;;;;;;8.82;4.15;;;;;;;-0.27;100.00;99403.34;6002926;28;20058;-73
2023/03/08 01:21:02;;;;;;;8.45;3.40;;;;;;;-0.27;100.00;99399.94;6002447;28;20045;-71
2023/03/08 01:23:58;;;;;;;8.93;4.05;;;;;;;-0.26;100.00;99392.00;6001421;28;20089;-72
2023/03/08 01:26:54;;;;;;;9.10;4.60;;;;;;;-0.20;100.00;99399.38;6002435;28;20026;-72
2023/03/08 01:29:49;;;;;;;10.45;4.15;;;;;;;-0.25;100.00;99392.84;6002812;28;20034;-73
2023/03/08 01:32:45;;;;;;;11.00;3.90;;;;;;;-0.28;100.00;99393.91;6006154;28;20137;-72
2023/03/08 01:35:40;;;;;;;8.43;3.90;;;;;;;-0.30;100.00;99390.56;6014288;28;20399;-72
2023/03/08 01:38:35;;;;;;;10.43;3.53;;;;;;;-0.36;100.00;99371.97;6000246;28;20030;-72
2023/03/08 01:41:31;;;;;;;9.82;3.65;;;;;;;-0.32;100.00;99389.84;6006649;28;20039;-71
2023/03/08 01:44:26;;;;;;;9.20;4.03;;;;;;;-0.53;100.00;99370.56;6005817;28;20053;-70
2023/03/08 01:47:24;;;;;;;8.43;3.53;;;;;;;-0.51;100.00;99380.84;6006871;28;20516;-73
2023/03/08 01:50:20;;;;;;;7.65;3.28;;;;;;;-0.53;100.00;99380.97;6011180;28;20309;-71
2023/03/08 01:53:15;;;;;;;9.10;3.53;;;;;;;-0.58;100.00;99375.25;6004498;28;20475;-72
2023/03/08 01:56:12;;;;;;;7.30;3.27;;;;;;;-0.66;100.00;99361.97;6006602;28;20077;-72
2023/03/08 01:59:08;;;;;;;8.23;3.60;;;;;;;-0.64;100.00;99360.06;6005055;28;20402;-70
2023/03/08 02:02:04;;;;;;;9.88;3.60;;;;;;;-0.52;100.00;99369.63;6005777;28;20047;-73
2023/03/08 02:04:59;;;;;;;10.60;3.17;;;;;;;-0.60;100.00;99358.94;6006243;28;20073;-73
2023/03/08 02:07:54;;;;;;;8.03;3.43;;;;;;;-0.50;100.00;99372.94;6011863;28;20160;-71
2023/03/08 02:10:50;;;;;;;6.30;2.83;;;;;;;-0.54;100.00;99361.06;6005874;28;20027;-70
2023/03/08 02:13:46;;;;;;;6.05;3.22;;;;;;;-0.45;100.00;99376.03;6020297;28;20038;-73
2023/03/08 02:16:41;;;;;;;6.20;2.67;;;;;;;-0.41;100.00;99372.28;6005944;28;20047;-73
2023/03/08 02:20:01;;;;;;;8.38;3.00;;;;;;;-0.42;100.00;99368.03;6005185;28;20034;-72
2023/03/08 02:23:08;;;;;;;7.18;2.60;;;;;;;-0.47;100.00;99370.13;6020134;28;20463;-73
2023/03/08 02:26:04;;;;;;;6.90;3.22;;;;;;;-0.47;100.00;99367.53;6007249;28;20031;-71
2023/03/08 02:28:59;;;;;;;7.00;3.03;;;;;;;-0.48;100.00;99371.06;6005832;28;20043;-73
2023/03/08 02:31:55;;;;;;;7.10;3.30;;;;;;;-0.58;100.00;99353.59;6005255;28;20034;-71
2023/03/08 02:34:50;;;;;;;5.17;2.67;;;;;;;-0.63;100.00;99361.75;6005486;28;20031;-73
2023/03/08 02:37:45;;;;;;;9.43;3.07;;;;;;;-0.72;100.00;99346.78;6005704;28;20045;-71
2023/03/08 02:40:41;;;;;;;7.87;2.73;;;;;;;-0.75;100.00;99353.03;6005873;28;20058;-71
2023/03/08 02:43:36;;;;;;;6.97;2.93;;;;;;;-0.73;100.00;99361.56;6005568;28;20074;-74
2023/03/08 02:46:31;;;;;;;8.40;3.17;;;;;;;-0.80;100.00;99352.53;6006013;28;20042;-72
2023/03/08 02:49:26;;;;;;;6.33;2.77;;;;;;;-0.76;100.00;99360.97;6005532;28;20398;-73
2023/03/08 02:52:22;;;;;;;5.33;2.13;;;;;;;-0.76;100.00;99366.16;6004514;28;20281;-73
2023/03/08 02:55:17;;;;;;;5.13;2.20;;;;;;;-0.81;100.00;99357.81;6005432;28;20457;-70
2023/03/08 02:58:12;;;;;;;6.27;2.37;;;;;;;-0.83;100.00;99344.94;6005060;28;20035;-73
2023/03/08 03:01:11;;;;;;;5.47;2.43;;;;;;;-0.78;100.00;99357.63;6005491;28;20030;-73
2023/03/08 03:04:07;;;;;;;4.55;2.42;;;;;;;-0.77;100.00;99348.88;6004580;28;20113;-72
2023/03/08 03:07:02;;;;;;;5.07;2.20;;;;;;;-0.80;100.00;99359.50;6005141;28;20038;-72
2023/03/08 03:09:57;;;;;;;7.32;2.22;;;;;;;-0.83;100.00;99351.91;6003989;28;20023;-72
2023/03/08 03:12:53;;;;;;;5.37;2.30;;;;;;;-0.94;100.00;99337.06;6004014;28;20643;-73
2023/03/08 03:15:48;;;;;;;4.95;2.13;;;;;;;-0.97;100.00;99336.44;6005869;28;20034;-72
2023/03/08 03:18:43;;;;;;;8.83;2.53;;;;;;;-0.99;100.00;99339.16;5993384;28;20037;-72
2023/03/08 03:21:39;;;;;;;8.03;2.63;;;;;;;-0.98;100.00;99346.00;6004602;28;20031;-72
2023/03/08 03:24:34;;;;;;;5.65;2.63;;;;;;;-0.90;100.00;99353.28;6003930;28;20089;-73
2023/03/08 03:27:29;;;;;;;6.60;3.07;;;;;;;-0.90;100.00;99354.13;6004465;28;20057;-71
2023/03/08 03:30:25;;;;;;;7.50;3.07;;;;;;;-1.02;100.00;99335.94;6004606;28;20494;-74
2023/03/08 03:33:20;;;;;;;6.87;2.43;;;;;;;-0.94;100.00;99357.03;6004001;28;20494;-71
2023/03/08 03:36:18;;;;;;;7.23;2.57;;;;;;;-1.03;100.00;99339.50;6000886;28;20279;-73
2023/03/08 03:39:13;;;;;;;7.72;3.15;;;;;;;-1.01;100.00;99346.25;6001672;28;20038;-71
2023/03/08 03:42:08;;;;;;;7.83;3.43;;;;;;;-1.00;100.00;99344.44;6003712;28;20038;-74
2023/03/08 03:45:04;;;;;;;11.43;3.40;;;;;;;-0.96;100.00;99348.50;6004467;28;20034;-72
2023/03/08 03:47:59;;;;;;;7.82;2.90;;;;;;;-1.06;100.00;99348.31;6004505;28;20270;-73
2023/03/08 03:51:03;;;;;;;7.68;3.40;;;;;;;-1.20;100.00;99338.88;6016827;28;20114;-73
2023/03/08 03:53:59;;;;;;;8.75;3.30;;;;;;;-1.15;100.00;99359.38;6002844;28;20035;-73
2023/03/08 03:56:57;;;;;;;8.30;3.00;;;;;;;-1.23;100.00;99351.25;6004036;28;20030;-72
2023/03/08 03:59:52;;;;;;;7.15;2.88;;;;;;;-1.25;100.00;99338.34;6004015;28;20030;-72
2023/03/08 04:02:47;;;;;;;11.20;3.53;;;;;;;-1.18;100.00;99346.56;6002819;28;20553;-72
2023/03/08 04:05:42;;;;;;;10.67;3.73;;;;;;;-1.24;100.00;99358.22;5998815;28;20039;-72
2023/03/08 04:08:41;;;;;;;9.30;3.57;;;;;;;-1.37;100.00;99340.97;6002816;28;20097;-71
2023/03/08 04:11:37;;;;;;;14.18;4.63;;;;;;;-1.33;100.00;99351.03;6003667;28;20500;-74
2023/03/08 04:14:33;;;;;;;8.23;3.65;;;;;;;-1.34;100.00;99356.38;6002974;28;20517;-74
2023/03/08 04:17:28;;;;;;;9.53;3.80;;;;;;;-1.39;100.00;99351.50;6003402;28;20034;-72
2023/03/08 04:20:23;;;;;;;9.87;4.13;;;;;;;-1.40;100.00;99357.63;6003293;28;20046;-71
2023/03/08 04:23:19;;;;;;;11.00;3.55;;;;;;;-1.52;100.00;99342.84;6001750;28;20046;-74
2023/03/08 04:26:14;;;;;;;9.73;4.37;;;;;;;-1.55;100.00;99345.66;6002793;28;20038;-72
2023/03/08 04:29:10;;;;;;;13.15;4.63;;;;;;;-1.53;100.00;99349.00;6003299;28;20541;-74
2023/03/08 04:32:05;;;;;;;9.27;3.73;;;;;;;-1.47;100.00;99356.34;6002641;28;20374;-73
2023/03/08 04:35:01;;;;;;;12.30;4.85;;;;;;;-1.52;100.00;99340.25;6003011;28;20038;-72
2023/03/08 04:37:56;;;;;;;12.83;4.37;;;;;;;-1.43;100.00;99363.03;5996199;28;20042;-73
2023/03/08 04:41:00;;;;;;;12.97;4.53;;;;;;;-1.54;100.00;99341.28;6004588;28;20034;-73
2023/03/08 04:43:56;;;;;;;9.57;5.05;;;;;;;-1.56;100.00;99336.19;6002292;28;20140;-72
2023/03/08 04:46:52;;;;;;;18.30;5.00;;;;;;;-1.55;100.00;99345.66;6002970;28;20035;-71
2023/03/08 04:49:47;;;;;;;13.32;4.78;;;;;;;-1.51;100.00;99347.13;6003005;28;20078;-75
2023/03/08 04:52:42;;;;;;;11.67;4.73;;;;;;;-1.53;100.00;99330.81;6002410;28;20050;-72
2023/03/08 04:55:38;;;;;;;13.33;4.37;;;;;;;-1.46;100.00;99354.59;6002703;28;20038;-73
2023/03/08 04:58:35;;;;;;;15.07;4.90;;;;;;;-1.48;100.00;99351.28;6003706;28;20387;-72
2023/03/08 05:01:30;;;;;;;16.05;5.60;;;;;;;-1.45;100.00;99356.25;6002623;28;20047;-71
2023/03/08 05:04:25;;;;;;;15.23;5.80;;;;;;;-1.50;100.00;99338.41;6000732;28;20042;-74
2023/03/08 05:07:21;;;;;;;20.10;6.10;;;;;;;-1.55;100.00;99339.63;6002045;28;20497;-74
2023/03/08 05:10:16;;;;;;;14.07;4.80;;;;;;;-1.53;100.00;99343.78;6002614;28;20027;-73
2023/03/08 05:13:11;;;;;;;11.20;4.47;;;;;;;-1.60;100.00;99333.94;6001838;28;20058;-74
2023/03/08 05:16:07;;;;;;;15.43;5.60;;;;;;;-1.55;100.00;99337.84;6003291;28;20486;-73
2023/03/08 05:19:02;;;;;;;14.70;4.43;;;;;;;-1.59;100.00;99338.16;6002828;28;20038;-73
2023/03/08 05:21:58;;;;;;;18.73;4.77;;;;;;;-1.46;100.00;99354.59;6001942;28;20434;-73
2023/03/08 05:24:53;;;;;;;10.43;4.37;;;;;;;-1.47;100.00;99348.56;6002285;28;20078;-73
2023/03/08 05:27:48;;;;;;;12.43;4.87;;;;;;;-1.49;100.00;99353.03;6001908;28;20043;-72
2023/03/08 05:30:43;;;;;;;13.57;4.67;;;;;;;-1.51;100.00;99336.72;6002386;28;20375;-72
2023/03/08 05:33:39;;;;;;;12.03;4.30;;;;;;;-1.46;100.00;99341.59;6002781;28;20069;-72
2023/03/08 05:36:35;;;;;;;13.32;4.43;;;;;;;-1.56;100.00;99318.00;5996213;28;20031;-73
2023/03/08 05:39:30;;;;;;;12.63;4.00;;;;;;;-1.57;100.00;99326.72;6001653;28;20043;-72
2023/03/08 05:42:26;;;;;;;10.67;4.33;;;;;;;-1.68;100.00;99323.19;6001887;28;20078;-72
2023/03/08 05:45:21;;;;;;;8.82;3.50;;;;;;;-1.73;100.00;99318.31;6003060;28;20035;-74
2023/03/08 05:48:17;;;;;;;11.98;4.10;;;;;;;-1.63;100.00;99339.31;6004731;28;20398;-74
2023/03/08 05:51:15;;;;;;;7.57;3.15;;;;;;;-1.76;100.00;99315.91;6002546;28;20050;-73
2023/03/08 05:54:10;;;;;;;11.80;3.35;;;;;;;-1.63;100.00;99318.53;6016331;28;20042;-73
2023/03/08 05:57:05;;;;;;;10.90;3.90;;;;;;;-1.70;100.00;99301.69;6002234;28;20027;-73
2023/03/08 06:00:03;;;;;;;10.23;3.40;;;;;;;-1.61;100.00;99312.31;6001567;28;20084;-74
2023/03/08 06:03:02;;;;;;;9.30;3.20;;;;;;;-1.69;100.00;99305.97;6001389;28;20278;-73
2023/03/08 06:05:57;;;;;;;9.60;4.15;;;;;;;-1.62;100.00;99323.63;6002541;28;20089;-72
2023/03/08 06:08:54;;;;;;;9.53;3.10;;;;;;;-1.69;100.00;99306.78;6002126;28;20038;-72
2023/03/08 06:11:50;;;;;;;10.90;3.72;;;;;;;-1.59;100.00;99322.56;6001375;28;20081;-73
2023/03/08 06:14:45;;;;;;;10.77;4.07;;;;;;;-1.83;100.00;99283.50;6017053;28;20034;-72
2023/03/08 06:17:41;;;;;;;8.97;3.67;;;;;;;-1.70;100.00;99310.31;6005089;28;20027;-73
2023/03/08 06:20:36;;;;;;;8.00;3.05;;;;;;;-1.62;100.00;99322.78;6005444;28;20053;-73
2023/03/08 06:23:32;;;;;;;12.10;3.90;;;;;;;-1.57;100.00;99324.13;6007022;28;20401;-73
2023/03/08 06:26:28;;;;;;;11.70;3.00;;;;;;;-1.48;100.00;99326.13;6006324;28;20504;-73
2023/03/08 06:29:23;;;;;;;7.23;3.17;;;;;;;-1.55;100.00;99319.66;6005459;28;20035;-73
2023/03/08 06:32:18;;;;;;;9.97;4.03;;;;;;;-1.43;100.00;99325.78;6005062;28;20038;-74
2023/03/08 06:35:13;;;;;;;11.27;3.43;;;;;;;-1.31;100.00;99325.81;6005950;28;20042;-73
2023/03/08 06:38:09;;;;;;;12.33;3.57;;;;;;;-1.20;100.00;99331.06;6005974;28;20270;-73
2023/03/08 06:41:06;;;;;;;14.60;4.25;;;;;;;-1.23;100.00;99315.69;6007478;28;20030;-74
2023/03/08 06:44:01;;;;;;;9.98;3.85;;;;;;;-1.03;100.00;99310.88;6004869;28;20478;-73
2023/03/08 06:46:56;;;;;;;13.07;4.47;;;;;;;-0.89;100.00;99314.16;6005527;28;20042;-73
2023/03/08 06:49:52;;;;;;;10.87;4.03;;;;;;;-0.86;100.00;99326.09;6005562;28;20038;-72
2023/03/08 06:52:47;;;;;;;11.77;4.40;;;;;;;-0.80;100.00;99323.06;6005086;28;20426;-71
2023/03/08 06:55:42;;;;;;;10.83;3.70;;;;;;;-0.81;100.00;99316.19;6005201;28;20035;-74
2023/03/08 06:58:38;;;;;;;9.43;3.53;;;;;;;-0.70;100.00;99306.69;6002130;28;20027;-72
2023/03/08 07:01:33;;;;;;;11.50;4.50;;;;;;;-0.80;100.00;99284.88;5999811;28;20418;-72
2023/03/08 07:04:29;;;;;;;12.20;3.40;;;;;;;-0.57;100.00;99309.22;5997310;28;20526;-73
2023/03/08 07:07:24;;;;;;;10.63;3.73;;;;;;;-0.45;100.00;99312.72;6004405;28;20113;-72
2023/03/08 07:10:20;;;;;;;8.93;3.07;;;;;;;-0.31;100.00;99312.56;6003664;28;20361;-72
2023/03/08 07:13:16;;;;;;;10.30;3.65;;;;;;;-0.30;100.00;99311.63;6003429;28;20027;-73
2023/03/08 07:16:12;;;;;;;9.45;4.07;;;;;;;-0.25;100.00;99310.34;6008469;28;20039;-73
2023/03/08 07:19:07;;;;;;;11.52;3.50;;;;;;;-0.07;100.00;99316.78;6004478;28;20074;-72
2023/03/08 07:22:02;;;;;;;12.70;4.63;;;;;;;-0.18;100.00;99302.91;6004201;28;20039;-73
2023/03/08 07:24:58;;;;;;;12.77;4.70;;;;;;;-0.07;100.00;99323.78;6004235;28;20035;-73
2023/03/08 07:27:53;;;;;;;13.43;4.97;;;;;;;-0.06;100.00;99310.66;6002987;28;20038;-73
2023/03/08 07:30:50;;;;;;;25.20;7.50;;;;;;;0.02;100.00;99299.66;6008488;28;20765;-73
2023/03/08 07:33:46;;;;;;;17.15;6.07;;;;;;;-0.15;100.00;99282.69;6003402;28;20758;-73
2023/03/08 07:36:41;;;;;;;9.98;4.32;;;;;;;0.03;100.00;99285.66;5997196;28;20039;-73
2023/03/08 07:39:37;;;;;;;12.38;4.07;;;;;;;0.09;100.00;99284.38;6003938;28;20093;-73
2023/03/08 07:42:32;;;;;;;11.23;4.63;;;;;;;0.13;100.00;99288.44;6003310;28;20037;-74
2023/03/08 07:45:27;;;;;;;10.53;4.53;;;;;;;0.21;100.00;99273.03;6008732;28;20054;-73
2023/03/08 07:48:23;;;;;;;11.18;5.00;;;;;;;0.10;100.00;99270.41;6003762;28;20074;-73
2023/03/08 07:51:18;;;;;;;10.43;4.47;;;;;;;0.38;100.00;99278.63;6003761;28;20043;-74
2023/03/08 07:54:13;;;;;;;14.40;4.88;;;;;;;0.51;100.00;99258.50;6001384;28;20033;-73
2023/03/08 07:57:14;;;;;;;11.40;4.30;;;;;;;0.56;100.00;99253.75;6000673;28;20046;-74
2023/03/08 08:00:10;;;;;;;15.98;4.72;;;;;;;0.55;99.31;99253.84;6003079;28;20091;-73
2023/03/08 08:03:05;;;;;;;11.18;4.40;;;;;;;0.52;98.08;99254.09;6008610;28;20754;-74
2023/03/08 08:06:02;;;;;;;11.33;4.60;;;;;;;0.76;97.48;99260.00;6003002;28;20037;-74
2023/03/08 08:08:58;;;;;;;16.23;5.57;;;;;;;0.95;96.37;99257.59;6003014;28;20054;-74
2023/03/08 08:11:53;;;;;;;13.57;5.63;;;;;;;0.90;95.50;99254.53;6001930;28;20385;-73
2023/03/08 08:14:52;;;;;;;12.40;5.25;;;;;;;0.73;96.10;99259.44;6001352;28;20478;-73
2023/03/08 08:17:47;;;;;;;15.57;5.32;;;;;;;0.74;97.71;99253.25;6003225;28;20041;-73
2023/03/08 08:20:43;;;;;;;11.60;4.33;;;;;;;0.94;97.83;99265.56;6003955;28;20043;-73
2023/03/08 08:23:39;;;;;;;10.95;4.75;;;;;;;0.98;96.86;99262.56;6010849;28;20391;-73
2023/03/08 08:26:34;;;;;;;13.05;5.05;;;;;;;0.71;97.21;99254.31;6003172;28;20050;-72
2023/03/08 08:29:30;;;;;;;13.33;5.07;;;;;;;0.64;97.16;99253.16;6002913;28;20405;-73
2023/03/08 08:32:25;;;;;;;16.70;5.40;;;;;;;0.59;98.08;99255.28;6001817;28;20030;-71
2023/03/08 08:35:20;;;;;;;12.55;5.53;;;;;;;0.78;97.58;99260.72;6002526;28;20073;-73
2023/03/08 08:38:16;;;;;;;12.80;4.57;;;;;;;0.93;97.19;99259.50;6008161;28;20610;-73
2023/03/08 08:41:14;;;;;;;14.33;5.50;;;;;;;0.83;97.04;99237.72;6002554;28;20043;-73
2023/03/08 08:44:09;;;;;;;15.20;5.82;;;;;;;1.05;96.98;99242.88;6001482;28;20463;-73
2023/03/08 08:47:04;;;;;;;12.30;5.33;;;;;;;1.15;96.61;99258.63;6002434;28;20033;-73
2023/03/08 08:50:00;;;;;;;14.40;5.30;;;;;;;1.33;96.48;99245.91;6002651;28;20030;-73
2023/03/08 08:52:55;;;;;;;16.57;6.67;;;;;;;1.29;93.80;99252.31;6001177;28;20525;-73
2023/03/08 08:55:50;;;;;;;14.77;6.67;;;;;;;1.15;95.80;99256.03;6013386;28;20042;-73
2023/03/08 08:58:47;;;;;;;18.50;7.37;;;;;;;0.94;95.49;99240.31;6001106;28;20039;-72
2023/03/08 09:01:42;;;;;;;18.95;7.25;;;;;;;0.74;95.44;99246.25;6001969;28;20490;-73
2023/03/08 09:04:38;;;;;;;19.10;7.82;;;;;;;0.78;94.82;99254.69;6001724;28;20038;-72
2023/03/08 09:07:33;;;;;;;17.77;6.37;;;;;;;1.00;96.50;99247.66;6001367;28;20034;-73
2023/03/08 09:10:31;;;;;;;18.40;7.37;;;;;;;1.10;95.09;99251.19;6003234;28;20459;-72
2023/03/08 09:13:27;;;;;;;15.77;6.53;;;;;;;1.13;96.33;99253.53;6001217;28;20383;-72
2023/03/08 09:16:26;;;;;;;18.53;7.43;;;;;;;1.11;95.52;99239.75;6001864;28;20039;-72
2023/03/08 09:19:21;;;;;;;19.60;7.80;;;;;;;1.11;95.94;99241.56;6001720;28;20030;-73
2023/03/08 09:22:17;;;;;;;18.10;6.30;;;;;;;1.14;95.71;99223.88;6001156;28;20458;-71
2023/03/08 09:25:13;;;;;;;20.40;6.82;;;;;;;0.99;95.49;99227.72;6001674;28;20377;-72
2023/03/08 09:28:10;;;;;;;17.52;6.25;;;;;;;1.13;95.64;99229.22;6006451;28;20034;-73
2023/03/08 09:31:11;;;;;;;16.20;6.30;;;;;;;1.27;95.71;99217.66;5999530;28;20049;-72
2023/03/08 09:34:09;;;;;;;16.77;6.90;;;;;;;1.33;94.46;99206.72;5998802;28;20035;-72
2023/03/08 09:37:07;;;;;;;17.23;6.80;;;;;;;1.58;92.48;99193.28;6015308;28;20039;-72
2023/03/08 09:40:08;;;;;;;15.07;5.90;;;;;;;1.39;92.30;99200.97;6001197;28;20128;-73
2023/03/08 09:43:03;;;;;;;;;;;;;;;1.76;91.79;99199.63;6000677;28;20510;-72
2023/03/08 09:45:59;;;;;;;15.35;7.10;;;;;;;1.92;90.14;99202.63;6003167;28;19971;-73
2023/03/08 09:48:54;;;;;;;22.13;7.10;;;;;;;1.84;90.67;99193.75;6000676;28;20035;-74
2023/03/08 09:51:53;;;;;;;14.30;6.43;;;;;;;1.91;89.74;99193.09;6002462;28;20046;-72
2023/03/08 09:54:50;;;;;;;13.38;6.15;;;;;;;1.64;87.83;99180.56;6005041;28;20035;-72
2023/03/08 09:57:51;;;;;;;17.80;6.30;;;;;;;1.91;88.22;99174.81;6005365;28;20035;-71
2023/03/08 10:00:46;;;;;;;13.82;5.43;;;;;;;2.03;89.24;99158.09;6004747;28;20066;-73
2023/03/08 10:03:44;;;;;;;12.48;5.57;;;;;;;2.36;87.13;99165.66;6012094;28;20046;-73
2023/03/08 10:06:59;;;;;;;15.27;6.13;;;;;;;2.34;85.96;99151.03;6000069;28;20039;-72
2023/03/08 10:09:59;;;;;;;18.92;6.47;;;;;;;2.55;86.31;99149.22;6019876;28;20041;-73
2023/03/08 10:13:05;;;;;;;18.02;6.32;;;;;;;2.01;86.78;99141.69;6005546;28;20038;-73
2023/03/08 10:16:10;;;;;;;16.85;6.32;;;;;;;1.91;87.22;99129.53;6020068;28;20385;-72
2023/03/08 10:19:16;;;;;;;11.27;5.18;;;;;;;1.82;87.95;99139.03;6022026;28;20030;-72
2023/03/08 10:22:18;;;;;;;16.35;6.63;;;;;;;2.08;86.11;99128.94;6029776;28;20475;-71
2023/03/08 10:25:32;;;;;;;14.27;5.82;;;;;;;1.94;88.08;99122.28;6004149;28;20046;-73
2023/03/08 10:28:28;;;;;;;16.42;7.20;;;;;;;2.02;88.94;99119.84;6005083;28;20041;-71
2023/03/08 10:31:24;;;;;;;17.13;6.60;;;;;;;2.37;88.88;99116.78;6005419;28;20031;-71
2023/03/08 10:34:23;;;;;;;20.83;6.75;;;;;;;2.01;87.65;99114.75;6004496;28;20039;-71
2023/03/08 10:37:20;;;;;;;21.15;7.03;;;;;;;2.02;89.43;99095.47;6003926;28;20077;-72
2023/03/08 10:40:19;;;;;;;14.85;6.22;;;;;;;2.02;89.39;99101.53;6005177;28;20051;-72
2023/03/08 10:43:27;;;;;;;18.80;7.38;;;;;;;1.82;89.02;99110.28;6003133;28;20109;-71
2023/03/08 10:46:24;;;;;;;17.95;6.95;;;;;;;2.07;88.94;99107.19;6020014;28;20041;-71
2023/03/08 10:49:22;;;;;;;16.27;6.90;;;;;;;2.18;88.90;99085.34;6004411;28;20035;-70
2023/03/08 10:52:27;;;;;;;14.73;5.95;;;;;;;2.29;85.85;99095.72;6005020;28;20037;-71
2023/03/08 10:55:26;;;;;;;12.48;4.70;;;;;;;2.08;85.88;99077.50;6004913;28;20035;-70
2023/03/08 10:58:29;;;;;;;17.42;6.97;;;;;;;2.24;86.68;99077.81;6003661;28;20078;-71
2023/03/08 11:01:32;;;;;;;51.92;22.73;;;;;;;2.36;87.04;99081.97;6003538;28;20065;-71
2023/03/08 11:04:29;;;;;;;17.52;6.80;;;;;;;2.29;87.45;99066.94;6002537;28;20049;-71
2023/03/08 11:07:30;;;;;;;17.15;7.30;;;;;;;2.19;86.17;99066.09;6002730;28;20031;-71
2023/03/08 11:10:27;;;;;;;18.70;6.38;;;;;;;2.21;87.95;99067.63;6003755;28;20031;-73
2023/03/08 11:13:28;;;;;;;13.30;5.32;;;;;;;2.40;86.88;99062.44;6003554;28;20438;-71
2023/03/08 11:16:41;;;;;;;12.95;5.65;;;;;;;2.72;85.92;99072.66;6002582;28;20276;-71
2023/03/08 11:19:52;;;;;;;17.13;5.60;;;;;;;2.83;83.96;99069.06;6005532;28;20038;-71
2023/03/08 11:23:25;;;;;;;14.52;6.22;;;;;;;2.99;83.13;99074.56;6018036;28;20054;-70
2023/03/08 11:26:48;;;;;;;15.27;6.43;;;;;;;2.62;83.67;99071.00;6018900;28;20410;-70
2023/03/08 11:30:21;;;;;;;14.07;5.82;;;;;;;2.86;83.38;99068.78;6002172;28;20038;-70
2023/03/08 11:33:30;;;;;;;15.10;5.47;;;;;;;2.75;83.27;99058.47;5997240;28;20054;-70
2023/03/08 11:36:36;;;;;;;16.17;7.22;;;;;;;2.68;84.95;99065.22;6014716;28;20039;-70
2023/03/08 11:39:34;;;;;;;16.38;6.53;;;;;;;2.64;84.89;99033.25;6002661;28;20372;-72
2023/03/08 11:42:47;;;;;;;14.15;5.93;;;;;;;2.48;86.06;99072.22;6001757;28;20058;-71
2023/03/08 11:45:50;;;;;;;15.35;6.78;;;;;;;2.39;86.59;99066.00;6014253;28;20122;-70
2023/03/08 11:49:02;;;;;;;16.10;6.63;;;;;;;2.13;87.46;99057.00;6017187;28;20050;-70
2023/03/08 11:52:35;;;;;;;16.48;6.28;;;;;;;2.52;86.50;99064.94;6002706;28;20026;-71
2023/03/08 11:55:52;;;;;;;16.15;6.90;;;;;;;2.37;87.17;99062.69;6000424;28;20118;-70
2023/03/08 11:58:51;;;;;;;14.43;5.88;;;;;;;2.25;88.20;99047.28;6002458;28;20043;-70
2023/03/08 12:01:53;;;;;;;14.50;6.13;;;;;;;2.48;86.89;99063.53;6002037;28;20026;-71
2023/03/08 12:04:57;;;;;;;14.65;5.28;;;;;;;2.35;88.02;99043.72;6018114;28;20475;-74
2023/03/08 12:07:58;;;;;;;8.27;3.72;;;;;;;2.33;88.49;99065.72;6003028;28;20479;-70
2023/03/08 12:10:56;;;;;;;5.63;2.58;;;;;;;2.05;86.14;99062.06;6000761;28;20034;-71
2023/03/08 12:14:16;;;;;;;3.97;1.50;;;;;;;2.50;86.12;99061.63;6000765;28;20391;-72
2023/03/08 12:17:17;;;;;;;7.03;2.78;;;;;;;2.72;84.67;99058.72;6001604;28;20086;-71
2023/03/08 12:20:14;;;;;;;10.65;4.50;;;;;;;2.35;87.56;99055.94;6001892;28;20034;-71
2023/03/08 12:23:12;;;;;;;16.17;6.75;;;;;;;1.87;93.22;99058.44;6002003;28;20177;-70
2023/03/08 12:26:25;;;;;;;21.10;7.55;;;;;;;1.28;99.07;99066.09;6017976;28;20027;-73
2023/03/08 12:29:27;;;;;;;21.75;7.43;;;;;;;1.27;100.00;99068.84;5999526;28;20053;-72
2023/03/08 12:32:23;;;;;;;20.75;7.28;;;;;;;1.20;100.00;99048.47;6012952;28;20038;-73
2023/03/08 12:35:22;;;;;;;22.27;7.85;;;;;;;1.39;100.00;99059.97;6002214;28;20031;-73
2023/03/08 12:38:17;;;;;;;17.30;7.82;;;;;;;1.40;100.00;99054.66;6002587;28;20116;-73
2023/03/08 12:41:21;;;;;;;14.18;5.60;;;;;;;1.28;100.00;99041.81;6006222;28;20038;-73
2023/03/08 12:44:26;;;;;;;12.38;4.25;;;;;;;1.47;100.00;99044.53;6002493;28;20030;-72
2023/03/08 12:47:21;;;;;;;14.25;4.95;;;;;;;1.22;100.00;99035.31;5995967;28;20058;-74
2023/03/08 12:50:17;;;;;;;12.40;4.80;;;;;;;1.46;100.00;99048.91;6015526;28;20039;-73
2023/03/08 12:53:23;;;;;;;13.68;5.55;;;;;;;1.34;100.00;99044.72;6001848;28;20116;-74
2023/03/08 12:56:23;;;;;;;11.85;5.13;;;;;;;1.21;100.00;99054.53;6016175;28;20462;-73
2023/03/08 12:59:19;;;;;;;14.40;6.07;;;;;;;0.91;100.00;99050.09;6001198;28;20401;-74
2023/03/08 13:02:25;;;;;;;12.53;4.47;;;;;;;0.60;100.00;99036.09;6000661;28;20035;-72
2023/03/08 13:05:29;;;;;;;14.85;5.22;;;;;;;0.57;100.00;99035.53;6002067;28;20070;-73
2023/03/08 13:08:31;;;;;;;21.58;6.63;;;;;;;0.54;100.00;99044.41;6001375;28;20410;-72
2023/03/08 13:11:37;;;;;;;20.42;8.82;;;;;;;0.46;100.00;99040.78;6008178;28;20031;-72
2023/03/08 13:14:44;;;;;;;14.55;5.82;;;;;;;0.33;100.00;99025.28;5999892;28;20030;-73
2023/03/08 13:17:47;;;;;;;18.85;7.05;;;;;;;0.38;100.00;99017.13;6000599;28;20459;-72
2023/03/08 13:21:02;;;;;;;19.98;6.47;;;;;;;0.62;100.00;99020.34;5999683;28;20100;-74
2023/03/08 13:24:07;;;;;;;12.45;5.13;;;;;;;0.74;100.00;99021.94;5990307;28;20110;-71
2023/03/08 13:27:23;;;;;;;12.68;5.32;;;;;;;0.80;100.00;99033.66;5999418;28;20046;-70
2023/03/08 13:30:45;;;;;;;19.95;8.43;;;;;;;0.71;100.00;99013.56;5998912;28;20475;-71
2023/03/08 13:33:43;;;;;;;13.45;5.45;;;;;;;0.84;100.00;99035.06;5992112;28;20117;-70
2023/03/08 13:36:39;;;;;;;16.58;4.65;;;;;;;0.86;100.00;99028.75;6018435;28;20027;-70
2023/03/08 13:39:34;;;;;;;12.13;4.63;;;;;;;0.93;100.00;99019.47;6003705;28;20045;-72
2023/03/08 13:42:29;;;;;;;13.37;3.97;;;;;;;0.95;100.00;99020.16;5999619;28;20035;-72
2023/03/08 13:45:25;;;;;;;7.63;3.53;;;;;;;0.97;100.00;99020.03;6001259;28;20038;-72
2023/03/08 13:48:21;;;;;;;8.43;3.25;;;;;;;0.91;100.00;99013.56;6001197;28;20089;-73
2023/03/08 13:51:17;;;;;;;12.57;5.65;;;;;;;0.88;100.00;99011.19;6011233;28;20041;-71